Cabinet, Idaho
Current Conditions -  °F | °C
As of 3:15 PM on Thursday 20 Nov 2014 (Local Time) from KSZT Reporting Station
Overcast Overcast  
Wind Chill: 27°   Ceiling: 2300
Heat Index: 32°   Visibility: 10mi
Dew Point: 32°   Wind: 5mph
Humidity: 100%   Direction: 170°S
Pressure: 30.04"   Gusts: NA
Location:  48.029°N, 116.307°W
Report Text: KSZT 202315Z AUTO 17004KT 10SM OVC023 00/00 A3004 RMK AO2
Loading
Personal Weather Stations






























Interactive Weather Map New forecast layout! Learn more

10-Day Weather Forecast

Advertisements
Track Severe Weather on mobile